Flight Track Log - Related Links

Times and Time Zones

All times are in EDT time to prevent confusion due to time zone crossing. See the N559LC flight status page for this flight to view local times or setup timezone preferences in your user account.

Time Position Orientation Groundspeed Altitude Reporting Facility
EDT Latitude Longitude Course Direction KTS MPH feet Rate Location/Type
Mon 03:20:17 PM 42.2272 -83.3392 48° Northeast 156 180 1,700  Level Cleveland Center
Mon 03:21:24 PM 42.2672 -83.2797 48° Northeast 217 250 5,500 2,865 Climbing Cleveland Center
Mon 03:22:08 PM 42.2703 -83.2278 85° East 238 274 7,000 2,727 Climbing Cleveland Center
Mon 03:22:19 PM 42.2586 -83.2025 122° Southeast 286 329 8,000 3,290 Climbing Cleveland Center
Mon 03:23:10 PM 42.2222 -83.1431 130° Southeast 293 337 10,400 2,761 Climbing Cleveland Center
Mon 03:24:12 PM 42.1275 -83.1875 199° South 335 386 13,200 2,952 Climbing Cleveland Center
Mon 03:25:14 PM 42.0475 -83.2558 212° Southwest 343 395 16,500 2,806 Climbing Cleveland Center
Mon 03:26:16 PM 41.9628 -83.3289 213° Southwest 355 409 19,000 2,516 Climbing Cleveland Center
Mon 03:27:18 PM 41.8725 -83.4058 212° Southwest 371 427 21,700 2,468 Climbing Cleveland Center
Mon 03:28:20 PM 41.7789 -83.4817 211° Southwest 386 444 24,100 2,112 Climbing Cleveland Center
Mon 03:29:23 PM 41.6656 -83.5106 191° South 414 476 26,100 1,872 Climbing Cleveland Center
Mon 03:30:25 PM 41.5406 -83.4833 171° South 453 521 28,000 2,081 Climbing Cleveland Center
Mon 03:31:27 PM 41.3867 -83.4467 170° South 468 539 30,400 2,419 Climbing Cleveland Center
Mon 03:32:29 PM 41.2611 -83.4183 170° South 462 532 33,000 2,516 Climbing Cleveland Center
Mon 03:33:31 PM 41.1381 -83.3906 170° South 451 519 35,600 2,032 Climbing Cleveland Center
Mon 03:34:33 PM 41.0064 -83.3608 170° South 439 505 37,200 1,403 Climbing Cleveland Center
Mon 03:35:35 PM 40.8842 -83.3328 170° South 444 511 38,500 1,065 Climbing Cleveland Center
Mon 03:36:37 PM 40.7592 -83.3058 171° South 453 521 39,400 1,161 Climbing Cleveland Center
Mon 03:37:39 PM 40.6339 -83.2772 170° South 458 527 40,900 1,210 Climbing Cleveland Center
Mon 03:38:41 PM 40.5108 -83.2494 170° South 450 518 41,900 1,016 Climbing Cleveland Center
Mon 03:39:43 PM 40.3644 -83.2186 171° South 444 511 43,000 528 Climbing Cleveland Center
Mon 03:40:46 PM 40.2414 -83.1903 170° South 446 513 43,000  Level Cleveland Center
Mon 03:41:48 PM 40.1153 -83.1625 170° South 453 521 43,000  Level Cleveland Center
Mon 03:42:50 PM 39.9769 -83.1331 171° South 461 531 43,000  Level Cleveland Center
Mon 03:43:52 PM 39.8561 -83.1067 170° South 467 537 43,000  Level Cleveland Center
Mon 03:44:54 PM 39.7253 -83.0789 171° South 471 542 43,000  Level Cleveland Center
Mon 03:45:56 PM 39.5944 -83.0511 171° South 473 544 43,000  Level Cleveland Center
Mon 03:46:58 PM 39.4642 -83.0231 171° South 474 545 43,000  Level Cleveland Center
Mon 03:48:00 PM 39.3078 -82.9906 171° South 474 545 43,000  Level Cleveland Center
Mon 03:49:25 PM 39.1289 -82.9514 170° South 472 543 43,000  Level Indianapolis Center
Mon 03:50:27 PM 38.9986 -82.9244 171° South 473 544 43,000  Level Indianapolis Center
Mon 03:51:29 PM 38.8678 -82.8983 171° South 475 547 43,000  Level Indianapolis Center
Mon 03:52:32 PM 38.7364 -82.8694 170° South 477 549 43,000  Level Indianapolis Center
Mon 03:53:34 PM 38.6006 -82.8414 171° South 475 547 43,000  Level Indianapolis Center
Mon 03:54:36 PM 38.4492 -82.8089 170° South 473 544 43,000  Level Indianapolis Center
Mon 03:55:38 PM 38.3167 -82.7831 171° South 478 550 43,000  Level Indianapolis Center
Mon 03:56:40 PM 38.1853 -82.7556 171° South 478 550 43,000  Level Indianapolis Center
Mon 03:57:42 PM 38.0536 -82.7297 171° South 476 548 43,000  Level Indianapolis Center
Mon 03:58:44 PM 37.9217 -82.7014 170° South 478 550 43,000  Level Indianapolis Center
Mon 03:59:46 PM 37.7683 -82.6706 171° South 478 550 43,000  Level Indianapolis Center
Mon 04:00:48 PM 37.6342 -82.6444 171° South 483 556 43,000  Level Indianapolis Center
Mon 04:01:50 PM 37.5017 -82.6164 170° South 481 554 43,000  Level Indianapolis Center
Mon 04:02:52 PM 37.3675 -82.5894 171° South 483 556 43,000  Level Indianapolis Center
Mon 04:03:54 PM 37.2333 -82.5619 171° South 484 557 43,000  Level Indianapolis Center
Mon 04:04:56 PM 37.0997 -82.5347 171° South 482 555 43,000  Level Indianapolis Center
Mon 04:05:58 PM 36.9661 -82.5086 171° South 480 552 43,000  Level Indianapolis Center
Mon 04:07:01 PM 36.8100 -82.4778 171° South 480 552 43,000  Level Indianapolis Center
Mon 04:08:03 PM 36.6753 -82.4508 171° South 483 556 43,000  Level Indianapolis Center
Mon 04:08:33 PM 36.6047 -82.4353 170° South 486 559 43,000  Level Atlanta Center
Mon 04:09:33 PM 36.4708 -82.4097 171° South 486 559 43,000  Level Atlanta Center
Mon 04:10:33 PM 36.3369 -82.3867 172° South 486 559 43,000  Level Atlanta Center
Mon 04:11:33 PM 36.2075 -82.3583 170° South 486 559 43,000  Level Atlanta Center
Mon 04:12:33 PM 36.0736 -82.3331 171° South 486 559 43,000  Level Atlanta Center
Mon 04:13:33 PM 35.9375 -82.3075 171° South 486 559 43,000  Level Atlanta Center
Mon 04:14:33 PM 35.8058 -82.2822 171° South 486 559 43,000  Level Atlanta Center
Mon 04:15:33 PM 35.6761 -82.2594 172° South 480 552 43,000  Level Atlanta Center
Mon 04:16:33 PM 35.5422 -82.2369 172° South 480 552 43,000  Level Atlanta Center
Mon 04:17:33 PM 35.4042 -82.2119 172° South 492 566 43,000  Level Atlanta Center
Mon 04:18:33 PM 35.2744 -82.1842 170° South 492 566 43,000  Level Atlanta Center
Mon 04:19:33 PM 35.1406 -82.1592 171° South 486 559 43,000  Level Atlanta Center
Mon 04:20:33 PM 35.0108 -82.1342 171° South 480 552 43,000  Level Atlanta Center
Mon 04:21:33 PM 34.8914 -82.1092 170° South 480 552 43,000  Level Atlanta Center
Mon 04:23:06 PM 34.6828 -82.0669 171° South 498 573 43,000  Level Jacksonville Center
Mon 04:24:06 PM 34.5514 -82.0456 172° South 498 573 43,000  Level Jacksonville Center
Mon 04:25:06 PM 34.4175 -82.0192 171° South 498 573 43,000  Level Jacksonville Center
Mon 04:26:06 PM 34.2839 -81.9928 171° South 493 567 43,000  Level Jacksonville Center
Mon 04:27:06 PM 34.1503 -81.9667 171° South 493 567 43,000  Level Jacksonville Center
Mon 04:28:06 PM 34.0164 -81.9431 172° South 487 560 43,000  Level Jacksonville Center
Mon 04:29:06 PM 33.8828 -81.9194 172° South 487 560 43,000  Level Jacksonville Center
Mon 04:30:06 PM 33.7469 -81.8936 171° South 487 560 43,000  Level Jacksonville Center
Mon 04:31:06 PM 33.6111 -81.8675 171° South 487 560 43,000  Level Jacksonville Center
Mon 04:32:06 PM 33.4753 -81.8442 172° South 487 560 43,000  Level Jacksonville Center
Mon 04:33:06 PM 33.3414 -81.8183 171° South 487 560 43,000  Level Jacksonville Center
Mon 04:34:06 PM 33.2056 -81.7953 172° South 487 560 43,000  Level Jacksonville Center
Mon 04:35:06 PM 33.0717 -81.7697 171° South 487 560 43,000  Level Jacksonville Center
Mon 04:36:06 PM 32.9400 -81.7467 172° South 487 560 43,000  Level Jacksonville Center
Mon 04:37:06 PM 32.8061 -81.7211 171° South 487 560 43,000  Level Jacksonville Center
Mon 04:38:06 PM 32.6597 -81.6983 173° South 481 554 43,000  Level Jacksonville Center
Mon 04:39:06 PM 32.5239 -81.6753 172° South 488 562 43,000  Level Jacksonville Center
Mon 04:40:06 PM 32.4006 -81.6525 171° South 495 570 43,000  Level Jacksonville Center
Mon 04:41:06 PM 32.2519 -81.6275 172° South 495 570 43,000  Level Jacksonville Center
Mon 04:42:06 PM 32.1286 -81.6047 171° South 501 577 43,000  Level Jacksonville Center
Mon 04:43:06 PM 31.9781 -81.5772 171° South 500 575 43,000  Level Jacksonville Center
Mon 04:44:06 PM 31.8400 -81.5500 170° South 500 575 43,000  Level Jacksonville Center
Mon 04:45:06 PM 31.7186 -81.5297 172° South 505 581 43,000  Level Jacksonville Center
Mon 04:46:06 PM 31.5681 -81.5028 171° South 505 581 43,000  Level Jacksonville Center
Mon 04:47:06 PM 31.4467 -81.4803 171° South 500 575 43,000  Level Jacksonville Center
Mon 04:48:06 PM 31.3086 -81.4581 172° South 500 575 43,000  Level Jacksonville Center
Mon 04:49:06 PM 31.1728 -81.4356 172° South 500 575 43,000  Level Jacksonville Center
Mon 04:50:06 PM 31.0386 -81.4086 170° South 500 575 43,000  Level Jacksonville Center
Mon 04:51:06 PM 30.9069 -81.3842 171° South 500 575 43,000  Level Jacksonville Center
Mon 04:52:06 PM 30.7689 -81.3622 172° South 500 575 43,000  Level Jacksonville Center
Mon 04:53:06 PM 30.6328 -81.3403 172° South 500 575 43,000  Level Jacksonville Center
Mon 04:54:06 PM 30.4989 -81.3158 171° South 500 575 43,000 -750 Level Jacksonville Center
Mon 04:55:06 PM 30.3589 -81.2917 172° South 506 582 41,500 -1,600 Descending Jacksonville Center
Mon 04:56:06 PM 30.2186 -81.2675 172° South 506 582 39,800 -1,750 Descending Jacksonville Center
Mon 04:57:06 PM 30.0764 -81.2436 172° South 511 588 38,000 -1,800 Descending Jacksonville Center
Mon 04:58:06 PM 29.9361 -81.2219 172° South 511 588 36,200 -1,000 Descending Jacksonville Center
Mon 04:59:06 PM 29.7875 -81.1983 172° South 505 581 36,000 -60 Descending Jacksonville Center
Mon 05:01:26 PM 29.4592 -81.1358 171° South 520 598 36,000  Level Miami Center
Mon 05:02:26 PM 29.3347 -81.1192 173° South 515 593 36,000  Level Miami Center
Mon 05:03:26 PM 29.2011 -81.0475 155° Southeast 515 593 36,000  Level Miami Center
Mon 05:04:26 PM 29.0767 -80.9547 147° Southeast 515 593 36,000  Level Miami Center
Mon 05:05:26 PM 28.9519 -80.8647 148° Southeast 527 606 36,000  Level Miami Center
Mon 05:06:26 PM 28.8172 -80.7628 146° Southeast 533 613 36,000  Level Miami Center
Mon 05:07:26 PM 28.7047 -80.6808 147° Southeast 533 613 36,000 -1,300 Level Miami Center
Mon 05:08:26 PM 28.5778 -80.5889 148° Southeast 538 619 33,400 -2,900 Descending Miami Center
Mon 05:09:26 PM 28.4336 -80.5086 154° Southeast 519 597 30,200 -2,850 Descending Miami Center
Mon 05:10:26 PM 28.2953 -80.4594 163° South 519 597 27,700 -2,450 Descending Miami Center
Mon 05:11:26 PM 28.1564 -80.4150 164° South 519 597 25,300 -2,300 Descending Miami Center
Mon 05:12:26 PM 28.0467 -80.3761 163° South 487 560 23,100 -2,150 Descending Miami Center
Mon 05:13:26 PM 27.9286 -80.3372 164° South 456 525 21,000 -2,150 Descending Miami Center
Mon 05:14:26 PM 27.8003 -80.2958 164° South 444 511 18,800 -2,150 Descending Miami Center
Mon 05:15:26 PM 27.6928 -80.2575 162° South 418 481 16,700 -2,000 Descending Miami Center
Mon 05:16:26 PM 27.5850 -80.2236 164° South 406 467 14,800 -1,850 Descending Miami Center
Mon 05:17:26 PM 27.4939 -80.1931 163° South 391 450 13,000 -1,800 Descending Miami Center
Mon 05:18:26 PM 27.3964 -80.1622 164° South 374 430 11,200 -1,500 Descending Miami Center
Mon 05:19:26 PM 27.3008 -80.1383 167° South 342 394 10,000 -650 Descending Miami Center
Mon 05:20:26 PM 27.2200 -80.1150 166° South 316 364 9,900 -750 Descending Miami Center
Mon 05:21:26 PM 27.1436 -80.0778 157° South 298 343 8,500 -1,550 Descending Miami Center
Mon 05:22:26 PM 27.0794 -80.0458 156° South 298 343 6,800 -1,750 Descending Miami Center
Mon 05:23:26 PM 26.9967 -80.0108 159° South 288 331 5,000 -900 Descending Miami Center
Mon 05:24:26 PM 26.9289 -80.0508 208° Southwest 261 300 5,000  Level Miami Center
Mon 05:25:26 PM 26.8675 -80.0981 214° Southwest 261 300 5,000 -57 Level Miami Center
Mon 05:26:11 PM 26.8167 -80.1294 209° Southwest 272 313 4,900  Descending Miami Center
Mon 05:26:26 PM 26.8042 -80.1267 169° South 274 315 5,000  Climbing Miami Center
Mon 05:27:00 PM 26.7494 -80.1369 190° South 276 318 4,900 -63 Descending Miami Center
Mon 05:28:01 PM 26.6742 -80.1439 185° South 275 316 4,900 -689 Level Miami Center
Mon 05:29:02 PM 26.5989 -80.1467 182° South 269 310 3,500 -1,366 Descending Miami Center
Mon 05:30:04 PM 26.5214 -80.1561 186° South 260 299 2,100 -732 Descending Miami Center
Mon 05:31:05 PM 26.4483 -80.1608 183° South 257 296 2,000 -295 Descending Miami Center
Mon 05:32:06 PM 26.3917 -80.1664 185° South 186 214 1,500 -590 Descending Miami Center
Mon 05:33:07 PM 26.3481 -80.1536 165° South 168 193 800 -683 Descending Miami Center
Mon 05:34:09 PM 26.3678 -80.1169 59° Northeast 129 148 100 -677 Descending Miami Center
Mon 05:36:00 PM 26.3667 -80.1000 180° South  Level FlightAware Approximate

Login

Don't have an account? Register now (free) for customized features, flight alerts, and more!